Nearby METAR* Reports

*"METAR [Météorologique Aviation Régulière] is the international standard code format for hourly surface weather observations which is analogous to the SA coding currently used in the US. The acronym roughly translates from French as Aviation Routine Weather Report." (Source: https://www.ncdc.noaa.gov/wdcmet/data-access-search-viewer-tools/metar-terminal-aerodrome-forecast-taf-faq)

 

KTEB - Teterboro, New Jersey, USA
Distance from station: ENE 2mi, 3km
Updated: 04/11/2021 10:51am
Light rain, Mist, Overcast
Light rain, Mist, Overcast
 Wind from calm
Wind: Calm
Temperature: 55°F , 13°C
Dew Point: 55°F , 13°C
Humidity: 100%
Barometer: 29.61 inHg , 1002.7 hPa
Summary: Light rain, Mist
Clouds: Overcast
Visibility: 2 miles , 3 km
Cloud details: Overcast 400 ft
2021/04/11 14:51 KTEB 111451Z 00000KT 2SM -RA BR OVC004 13/13 A2961 RMK AO2 SLP027 P0003 60005 T01330128 56018
KNYC - Nyc/Central Park, New York, USA
Distance from station: SE 8mi, 13km
Updated: 04/11/2021 10:51am
Light rain, Mist, Overcast
Light rain, Mist, Overcast
 Wind from N
Wind: N 8 mph , 13 km/h
Temperature: 55°F , 13°C
Dew Point: 55°F , 13°C
Humidity: 100%
Barometer: 29.65 inHg , 1004.1 hPa
Summary: Light rain, Mist
Clouds: Overcast
Visibility: 2 miles , 3 km
Cloud details: Overcast 300 ft
2021/04/11 14:51 KNYC 111451Z AUTO 36007KT 2SM -RA BR OVC003 13/13 A2965 RMK AO2 SLP031 P0002 60006 T01330128 56018 $
KCDW - Caldwell, New Jersey, USA
Distance from station: W 11mi, 17km
Updated: 04/11/2021 10:04am
Light rain, Mist, Overcast
Light rain, Mist, Overcast
 Wind from ENE
Wind: ENE 7 mph , 11 km/h
Temperature: 55°F , 13°C
Dew Point: 54°F , 12°C
Humidity: 94%
Barometer: 29.64 inHg , 1003.7 hPa
Summary: Light rain, Mist
Clouds: Overcast
Visibility: 4 miles , 6 km
Cloud details: Overcast 400 ft
2021/04/11 14:04 KCDW 111404Z 06006KT 4SM -RA BR OVC004 13/12 A2964 RMK AO2 P0001 T01330122
 
KLGA - Nyc/La Guardia, New York, USA
Distance from station: ESE 12mi, 19km
Updated: 04/11/2021 10:51am
Light rain, Fog, Overcast
Light rain, Fog, Overcast
 Wind from NE
Wind: NE 14 mph , 22 km/h
Temperature: 52°F , 11°C
Dew Point: 50°F , 10°C
Humidity: 94%
Barometer: 29.62 inHg , 1003 hPa
Summary: Light rain, Fog
Clouds: Overcast
Visibility: 1/4 mile , 0.4 km
Cloud details: Mostly cloudy 300 ft
Overcast 400 ft
2021/04/11 14:51 KLGA 111451Z 05012KT 1/4SM R04/2000V3000FT -RA FG BKN003 OVC004 11/10 A2962 RMK AO2 SFC VIS 1/2 SLP031 P0002 60003 T01110100 56019
KEWR - Newark, New Jersey, USA
Distance from station: SSW 13mi, 20km
Updated: 04/11/2021 10:51am
Light rain, Mist, Overcast
Light rain, Mist, Overcast
 Wind from ENE
Wind: ENE 6 mph , 9 km/h
Temperature: 57°F , 14°C
Dew Point: 57°F , 14°C
Humidity: 100%
Barometer: 29.61 inHg , 1002.7 hPa
Summary: Light rain, Mist
Clouds: Overcast
Visibility: 6 miles , 10 km
Cloud details: Overcast 400 ft
2021/04/11 14:51 KEWR 111451Z 06005KT 6SM -RA BR OVC004 14/14 A2961 RMK AO2 SLP026 P0002 60011 T01440144 58018 $
KMMU - Morristown Muni, New Jersey, USA
Distance from station: WSW 18mi, 29km
Updated: 04/11/2021 10:45am
Rain, Overcast
Rain, Overcast
 Wind from E
Wind: E 10 mph , 17 km/h
Temperature: 59°F , 15°C
Dew Point: 59°F , 15°C
Humidity: 100%
Barometer: 29.62 inHg , 1003 hPa
Summary: Rain
Clouds: Overcast
Visibility: 5 miles , 8 km
Cloud details: Overcast 400 ft
2021/04/11 14:45 KMMU 111445Z 08009KT 5SM RA OVC004 15/15 A2962
 
KLDJ - Linden, New Jersey, USA
Distance from station: SSW 19mi, 30km
Updated: 04/11/2021 10:35am
Light drizzle, Overcast
Light drizzle, Overcast
 Wind from ESE
Wind: ESE 8 mph , 13 km/h
Temperature: 57°F , 14°C
Dew Point: 57°F , 14°C
Humidity: 100%
Barometer: 29.62 inHg , 1003 hPa
Summary: Light Drizzle
Clouds: Overcast
Visibility: 7 miles , 11 km
Cloud details: Overcast 500 ft
2021/04/11 14:35 KLDJ 111435Z AUTO 11007KT 7SM -DZ OVC005 14/14 A2962 RMK AO2 P0001 T01380136
KJFK - Nyc/Jfk Arpt, New York, USA
Distance from station: SE 23mi, 36km
Updated: 04/11/2021 10:51am
Light rain, Mist, Overcast
Light rain, Mist, Overcast
 Wind from E
Wind: E 12 mph , 19 km/h
Temperature: 57°F , 14°C
Dew Point: 55°F , 13°C
Humidity: 94%
Barometer: 29.63 inHg , 1003.4 hPa
Summary: Light rain, Mist
Clouds: Overcast
Visibility: 1/16 mile , 0.1 km
Cloud details: Overcast 300 ft
2021/04/11 14:51 KJFK 111451Z 08010KT 1/16SM R04R/P6000FT -RA BR OVC003 14/13 A2963 RMK AO2 SFC VIS 1 1/2 SLP033 P0002 60002 T01390133 56020
KHPN - White Plains, New York, USA
Distance from station: NE 25mi, 40km
Updated: 04/11/2021 9:56am
Fog, Overcast
Fog, Overcast
 Wind from ENE
Wind: ENE 6 mph , 9 km/h
Temperature: 54°F , 12°C
Dew Point: 54°F , 12°C
Humidity: 100%
Barometer: 29.66 inHg , 1004.4 hPa
Summary: Fog
Clouds: Overcast
Visibility: less than 1/4 mile , 0.4 km
Cloud details: Overcast 100 ft
2021/04/11 13:56 KHPN 111356Z 07005KT M1/4SM R16/1600V2200FT FG VV001 12/12 A2966 RMK SLP043
 
KSMQ - Somerville, New Jersey, USA
Distance from station: WSW 35mi, 56km
Updated: 04/11/2021 9:53am
Light rain, Mist, Overcast
Light rain, Mist, Overcast
 Wind from E
Wind: E 6 mph , 9 km/h
Temperature: 55°F , 13°C
Dew Point: 54°F , 12°C
Humidity: 94%
Barometer: 29.59 inHg , 1002 hPa
Summary: Light rain, Mist
Clouds: Overcast
Visibility: 6 miles , 10 km
Cloud details: Overcast 800 ft
2021/04/11 13:53 KSMQ 111353Z AUTO 08005KT 6SM -RA BR OVC008 13/12 A2959 RMK AO2 SLP021 P0006 T01330122
K12N - Andover, New Jersey, USA
Distance from station: WNW 36mi, 57km
Updated: 04/11/2021 9:54am

 Wind from calm
Wind: Calm
Temperature: 57°F , 14°C
Dew Point: 55°F , 13°C
Humidity: 94%
Barometer: 29.61 inHg , 1002.7 hPa
2021/04/11 13:54 K12N 111354Z AUTO 00000KT 14/13 A2961 RMK AO1 SLP027 P0006 T01440133
KFRG - Farmingdale, New York, USA
Distance from station: ESE 36mi, 58km
Updated: 04/11/2021 10:53am
Light rain, Overcast
Light rain, Overcast
 Wind from E
Wind: E 7 mph , 11 km/h
Temperature: 57°F , 14°C
Dew Point: 55°F , 13°C
Humidity: 94%
Barometer: 29.65 inHg , 1004.1 hPa
Summary: Light rain
Clouds: Overcast
Visibility: 1 3/4 miles , 2.8 km
Cloud details: Overcast 300 ft
2021/04/11 14:53 KFRG 111453Z 10006KT 1 3/4SM -RA OVC003 14/13 A2965 RMK AO2 SFC VIS 10 RAB49 SLP040 P0000 60000 T01390133 56007
 
KFWN - Sussex, New Jersey, USA
Distance from station: NW 37mi, 60km
Updated: 04/11/2021 10:53am
Rain, Mist, Overcast
Rain, Mist, Overcast
 Wind from NNE
Wind: NNE 8 mph , 13 km/h
Temperature: 57°F , 14°C
Dew Point: 55°F , 13°C
Humidity: 94%
Barometer: 29.62 inHg , 1003 hPa
Summary: Rain, Mist
Clouds: Overcast
Visibility: 2 1/2 miles , 4 km
Cloud details: Partly cloudy 700 ft
Mostly cloudy 5500 ft
Overcast 6500 ft
2021/04/11 14:53 KFWN 111453Z AUTO 03007KT 2 1/2SM RA BR SCT007 BKN055 OVC065 14/13 A2962 RMK AO2 SLP029 P0007 60009 T01440133 57011
KSWF - Newburgh/Stewart, New York, USA
Distance from station: 0 44mi, 72km
Updated: 04/11/2021 10:45am
Mist, Mostly cloudy
Mist, Mostly cloudy
 Wind from ESE
Wind: ESE 9 mph , 15 km/h
Temperature: 59°F , 15°C
Dew Point: 57°F , 14°C
Humidity: 94%
Barometer: 29.65 inHg , 1004.1 hPa
Summary: Mist
Clouds: Mostly cloudy
Visibility: 6 miles , 10 km
Cloud details: Mostly cloudy 800 ft
Mostly cloudy 12000 ft
2021/04/11 14:45 KSWF 111445Z 12008KT 6SM BR BKN008 BKN120 15/14 A2965
KMGJ - Montgomery, New York, USA
Distance from station: NNW 47mi, 75km
Updated: 04/11/2021 10:39am
Mostly cloudy
Mostly cloudy
 Wind from ESE
Wind: ESE 3 mph , 6 km/h
Temperature: 61°F , 16°C
Dew Point: 55°F , 13°C
Humidity: 83%
Barometer: 29.63 inHg , 1003.4 hPa
Clouds: Mostly cloudy
Visibility: 10 miles , 16 km
Cloud details: Mostly cloudy 1600 ft
Mostly cloudy 2100 ft
2021/04/11 14:39 KMGJ 111439Z AUTO 12003KT 10SM BKN016 BKN021 16/13 A2963 RMK AO2 T01610128
 
KDXR - Danbury, Connecticut, USA
Distance from station: NE 47mi, 76km
Updated: 04/11/2021 10:53am
Overcast
Overcast
 Wind from varies
Wind: varies 3 mph , 6 km/h
Temperature: 61°F , 16°C
Dew Point: 55°F , 13°C
Humidity: 83%
Barometer: 29.68 inHg , 1005.1 hPa
Clouds: Overcast
Visibility: 10 miles , 16 km
Cloud details: Overcast 700 ft
2021/04/11 14:53 KDXR 111453Z VRB03KT 10SM OVC007 16/13 A2968 RMK AO2 SLP046 T01610128 56004
KBLM - Belmar/Farmdale, New Jersey, USA
Distance from station: S 48mi, 77km
Updated: 04/11/2021 10:54am
Light rain, Fog, Overcast
Light rain, Fog, Overcast
 Wind from E
Wind: E 6 mph , 9 km/h
Temperature: 55°F , 13°C
Dew Point: 55°F , 13°C
Humidity: 100%
Barometer: 29.62 inHg , 1003 hPa
Summary: Light rain, Fog
Clouds: Overcast
Visibility: 1/4 mile , 0.4 km
Cloud details: Overcast 200 ft
2021/04/11 14:54 KBLM 111454Z AUTO 09005KT 1/4SM -RA FG OVC002 13/13 A2962 RMK AO2 P0000 RVRNO